sensor_id;sensor_type;location;lat;lon;timestamp;P1;durP1;ratioP1;P2;durP2;ratioP2
1987;SDS011;12775;46.994;15.498;2022-10-16T00:01:21;38.34;;;33.30;;
1987;SDS011;12775;46.994;15.498;2022-10-16T00:03:47;45.96;;;34.84;;
1987;SDS011;12775;46.994;15.498;2022-10-16T00:06:14;43.74;;;33.66;;
1987;SDS011;12775;46.994;15.498;2022-10-16T00:08:40;53.66;;;37.34;;
1987;SDS011;12775;46.994;15.498;2022-10-16T00:11:10;48.20;;;37.76;;
1987;SDS011;12775;46.994;15.498;2022-10-16T00:13:35;54.02;;;38.48;;
1987;SDS011;12775;46.994;15.498;2022-10-16T00:16:02;49.68;;;37.70;;
1987;SDS011;12775;46.994;15.498;2022-10-16T00:18:29;70.44;;;38.72;;
1987;SDS011;12775;46.994;15.498;2022-10-16T00:20:55;82.86;;;41.28;;
1987;SDS011;12775;46.994;15.498;2022-10-16T00:23:22;49.02;;;38.76;;
1987;SDS011;12775;46.994;15.498;2022-10-16T00:25:56;59.12;;;40.48;;
1987;SDS011;12775;46.994;15.498;2022-10-16T00:28:22;55.22;;;41.30;;
1987;SDS011;12775;46.994;15.498;2022-10-16T00:30:48;51.94;;;38.42;;
1987;SDS011;12775;46.994;15.498;2022-10-16T00:33:15;52.74;;;39.80;;
1987;SDS011;12775;46.994;15.498;2022-10-16T00:35:41;51.52;;;41.42;;
1987;SDS011;12775;46.994;15.498;2022-10-16T00:38:08;61.66;;;40.46;;
1987;SDS011;12775;46.994;15.498;2022-10-16T00:40:35;55.08;;;40.92;;
1987;SDS011;12775;46.994;15.498;2022-10-16T00:43:02;55.16;;;41.46;;
1987;SDS011;12775;46.994;15.498;2022-10-16T00:45:28;57.28;;;40.70;;
1987;SDS011;12775;46.994;15.498;2022-10-16T00:47:55;53.66;;;41.64;;
1987;SDS011;12775;46.994;15.498;2022-10-16T00:50:24;46.42;;;37.76;;
1987;SDS011;12775;46.994;15.498;2022-10-16T00:52:50;54.54;;;41.12;;
1987;SDS011;12775;46.994;15.498;2022-10-16T00:55:17;51.30;;;39.20;;
1987;SDS011;12775;46.994;15.498;2022-10-16T00:57:44;49.78;;;38.58;;
1987;SDS011;12775;46.994;15.498;2022-10-16T01:00:11;47.54;;;37.20;;
1987;SDS011;12775;46.994;15.498;2022-10-16T01:02:37;52.32;;;38.78;;
1987;SDS011;12775;46.994;15.498;2022-10-16T01:05:04;58.94;;;42.52;;
1987;SDS011;12775;46.994;15.498;2022-10-16T01:10:07;80.10;;;42.46;;
1987;SDS011;12775;46.994;15.498;2022-10-16T01:12:39;58.98;;;39.46;;
1987;SDS011;12775;46.994;15.498;2022-10-16T01:15:10;65.28;;;44.28;;
1987;SDS011;12775;46.994;15.498;2022-10-16T01:17:48;49.68;;;40.00;;
1987;SDS011;12775;46.994;15.498;2022-10-16T01:20:26;60.24;;;43.04;;
1987;SDS011;12775;46.994;15.498;2022-10-16T01:23:28;46.88;;;37.34;;
1987;SDS011;12775;46.994;15.498;2022-10-16T01:25:49;61.42;;;45.34;;
1987;SDS011;12775;46.994;15.498;2022-10-16T01:28:10;60.66;;;40.84;;
1987;SDS011;12775;46.994;15.498;2022-10-16T01:30:37;50.26;;;37.44;;
1987;SDS011;12775;46.994;15.498;2022-10-16T01:33:08;52.02;;;39.10;;
1987;SDS011;12775;46.994;15.498;2022-10-16T01:35:35;52.92;;;39.36;;
1987;SDS011;12775;46.994;15.498;2022-10-16T01:38:03;54.16;;;38.82;;
1987;SDS011;12775;46.994;15.498;2022-10-16T01:40:29;44.12;;;36.16;;
1987;SDS011;12775;46.994;15.498;2022-10-16T01:42:59;46.12;;;35.90;;
1987;SDS011;12775;46.994;15.498;2022-10-16T01:45:23;42.14;;;36.92;;
1987;SDS011;12775;46.994;15.498;2022-10-16T01:47:49;42.06;;;35.14;;
1987;SDS011;12775;46.994;15.498;2022-10-16T01:50:17;39.12;;;32.92;;
1987;SDS011;12775;46.994;15.498;2022-10-16T01:52:44;45.38;;;37.18;;
1987;SDS011;12775;46.994;15.498;2022-10-16T01:55:10;39.98;;;34.40;;
1987;SDS011;12775;46.994;15.498;2022-10-16T01:57:37;44.08;;;35.62;;
1987;SDS011;12775;46.994;15.498;2022-10-16T02:00:05;48.96;;;36.58;;
1987;SDS011;12775;46.994;15.498;2022-10-16T02:02:30;60.10;;;42.32;;
1987;SDS011;12775;46.994;15.498;2022-10-16T02:04:58;53.96;;;40.30;;
1987;SDS011;12775;46.994;15.498;2022-10-16T02:07:24;51.20;;;40.38;;
1987;SDS011;12775;46.994;15.498;2022-10-16T02:09:51;56.64;;;37.18;;
1987;SDS011;12775;46.994;15.498;2022-10-16T02:12:21;58.90;;;41.26;;
1987;SDS011;12775;46.994;15.498;2022-10-16T02:14:44;61.42;;;41.22;;
1987;SDS011;12775;46.994;15.498;2022-10-16T02:17:13;49.60;;;38.60;;
1987;SDS011;12775;46.994;15.498;2022-10-16T02:19:38;48.88;;;39.76;;
1987;SDS011;12775;46.994;15.498;2022-10-16T02:22:05;43.96;;;34.98;;
1987;SDS011;12775;46.994;15.498;2022-10-16T02:24:33;39.60;;;35.12;;
1987;SDS011;12775;46.994;15.498;2022-10-16T02:27:33;38.14;;;33.98;;
1987;SDS011;12775;46.994;15.498;2022-10-16T02:29:45;40.90;;;35.26;;
1987;SDS011;12775;46.994;15.498;2022-10-16T02:32:13;38.90;;;33.70;;
1987;SDS011;12775;46.994;15.498;2022-10-16T02:34:40;37.78;;;32.92;;
1987;SDS011;12775;46.994;15.498;2022-10-16T02:37:07;37.62;;;32.36;;
1987;SDS011;12775;46.994;15.498;2022-10-16T02:39:34;42.06;;;34.68;;
1987;SDS011;12775;46.994;15.498;2022-10-16T02:42:00;44.90;;;33.96;;
1987;SDS011;12775;46.994;15.498;2022-10-16T02:44:27;37.78;;;33.62;;
1987;SDS011;12775;46.994;15.498;2022-10-16T02:46:54;39.62;;;33.96;;
1987;SDS011;12775;46.994;15.498;2022-10-16T02:49:21;40.92;;;34.50;;
1987;SDS011;12775;46.994;15.498;2022-10-16T02:51:48;42.46;;;34.60;;
1987;SDS011;12775;46.994;15.498;2022-10-16T02:54:15;34.44;;;30.50;;
1987;SDS011;12775;46.994;15.498;2022-10-16T02:56:41;44.96;;;33.98;;
1987;SDS011;12775;46.994;15.498;2022-10-16T02:59:08;37.18;;;31.74;;
1987;SDS011;12775;46.994;15.498;2022-10-16T03:01:34;46.16;;;34.18;;
1987;SDS011;12775;46.994;15.498;2022-10-16T03:04:01;46.58;;;34.90;;
1987;SDS011;12775;46.994;15.498;2022-10-16T03:06:28;53.76;;;37.66;;
1987;SDS011;12775;46.994;15.498;2022-10-16T03:08:54;38.96;;;33.68;;
1987;SDS011;12775;46.994;15.498;2022-10-16T03:11:21;48.78;;;35.54;;
1987;SDS011;12775;46.994;15.498;2022-10-16T03:13:48;44.02;;;36.92;;
1987;SDS011;12775;46.994;15.498;2022-10-16T03:16:15;48.84;;;36.34;;
1987;SDS011;12775;46.994;15.498;2022-10-16T03:18:41;52.74;;;39.42;;
1987;SDS011;12775;46.994;15.498;2022-10-16T03:21:08;50.64;;;40.24;;
1987;SDS011;12775;46.994;15.498;2022-10-16T03:23:34;60.24;;;39.52;;
1987;SDS011;12775;46.994;15.498;2022-10-16T03:26:01;53.88;;;38.18;;
1987;SDS011;12775;46.994;15.498;2022-10-16T03:28:28;57.96;;;38.16;;
1987;SDS011;12775;46.994;15.498;2022-10-16T03:30:54;129.82;;;36.80;;
1987;SDS011;12775;46.994;15.498;2022-10-16T03:33:21;53.94;;;33.46;;
1987;SDS011;12775;46.994;15.498;2022-10-16T03:35:52;62.02;;;38.54;;
1987;SDS011;12775;46.994;15.498;2022-10-16T03:38:18;55.38;;;39.54;;
1987;SDS011;12775;46.994;15.498;2022-10-16T03:40:45;102.14;;;38.62;;
1987;SDS011;12775;46.994;15.498;2022-10-16T03:43:12;59.78;;;36.64;;
1987;SDS011;12775;46.994;15.498;2022-10-16T03:45:38;41.46;;;32.88;;
1987;SDS011;12775;46.994;15.498;2022-10-16T03:48:05;67.96;;;32.44;;
1987;SDS011;12775;46.994;15.498;2022-10-16T03:50:32;50.08;;;31.30;;
1987;SDS011;12775;46.994;15.498;2022-10-16T03:52:59;60.74;;;31.24;;
1987;SDS011;12775;46.994;15.498;2022-10-16T03:55:25;49.06;;;30.60;;
1987;SDS011;12775;46.994;15.498;2022-10-16T03:57:52;38.20;;;28.26;;
1987;SDS011;12775;46.994;15.498;2022-10-16T04:00:19;39.48;;;31.12;;
1987;SDS011;12775;46.994;15.498;2022-10-16T04:02:46;49.62;;;29.02;;
1987;SDS011;12775;46.994;15.498;2022-10-16T04:05:13;32.24;;;28.24;;
1987;SDS011;12775;46.994;15.498;2022-10-16T04:07:39;36.48;;;28.14;;
1987;SDS011;12775;46.994;15.498;2022-10-16T04:10:06;56.74;;;31.58;;
1987;SDS011;12775;46.994;15.498;2022-10-16T04:12:33;57.10;;;32.30;;
1987;SDS011;12775;46.994;15.498;2022-10-16T04:14:59;49.82;;;30.58;;
1987;SDS011;12775;46.994;15.498;2022-10-16T04:17:26;37.20;;;30.74;;
1987;SDS011;12775;46.994;15.498;2022-10-16T04:19:53;40.74;;;32.06;;
1987;SDS011;12775;46.994;15.498;2022-10-16T04:22:20;37.74;;;29.30;;
1987;SDS011;12775;46.994;15.498;2022-10-16T04:24:47;33.96;;;29.64;;
1987;SDS011;12775;46.994;15.498;2022-10-16T04:27:13;34.02;;;29.44;;
1987;SDS011;12775;46.994;15.498;2022-10-16T04:29:40;36.80;;;27.46;;
1987;SDS011;12775;46.994;15.498;2022-10-16T04:32:07;49.82;;;28.58;;
1987;SDS011;12775;46.994;15.498;2022-10-16T04:34:33;46.08;;;28.48;;
1987;SDS011;12775;46.994;15.498;2022-10-16T04:37:00;63.32;;;30.64;;
1987;SDS011;12775;46.994;15.498;2022-10-16T04:39:28;35.40;;;27.88;;
1987;SDS011;12775;46.994;15.498;2022-10-16T04:41:55;32.56;;;27.82;;
1987;SDS011;12775;46.994;15.498;2022-10-16T04:44:22;46.12;;;30.68;;
1987;SDS011;12775;46.994;15.498;2022-10-16T04:46:50;57.02;;;30.64;;
1987;SDS011;12775;46.994;15.498;2022-10-16T04:49:17;41.66;;;30.92;;
1987;SDS011;12775;46.994;15.498;2022-10-16T04:51:44;43.86;;;30.82;;
1987;SDS011;12775;46.994;15.498;2022-10-16T04:54:11;43.36;;;32.74;;
1987;SDS011;12775;46.994;15.498;2022-10-16T04:56:37;49.78;;;31.60;;
1987;SDS011;12775;46.994;15.498;2022-10-16T04:59:04;38.60;;;30.74;;
1987;SDS011;12775;46.994;15.498;2022-10-16T05:01:30;41.22;;;32.10;;
1987;SDS011;12775;46.994;15.498;2022-10-16T05:03:57;39.66;;;29.34;;
1987;SDS011;12775;46.994;15.498;2022-10-16T05:06:24;40.36;;;29.04;;
1987;SDS011;12775;46.994;15.498;2022-10-16T05:08:50;48.20;;;30.74;;
1987;SDS011;12775;46.994;15.498;2022-10-16T05:11:18;40.84;;;29.58;;
1987;SDS011;12775;46.994;15.498;2022-10-16T05:13:45;45.88;;;32.32;;
1987;SDS011;12775;46.994;15.498;2022-10-16T05:16:12;36.18;;;29.86;;
1987;SDS011;12775;46.994;15.498;2022-10-16T05:18:38;41.54;;;31.80;;
1987;SDS011;12775;46.994;15.498;2022-10-16T05:21:05;44.82;;;30.12;;
1987;SDS011;12775;46.994;15.498;2022-10-16T05:23:32;48.84;;;32.94;;
1987;SDS011;12775;46.994;15.498;2022-10-16T05:25:59;47.42;;;31.44;;
1987;SDS011;12775;46.994;15.498;2022-10-16T05:28:26;43.72;;;30.00;;
1987;SDS011;12775;46.994;15.498;2022-10-16T05:30:53;43.52;;;31.86;;
1987;SDS011;12775;46.994;15.498;2022-10-16T05:33:20;59.14;;;34.10;;
1987;SDS011;12775;46.994;15.498;2022-10-16T05:35:46;49.30;;;33.98;;
1987;SDS011;12775;46.994;15.498;2022-10-16T05:38:13;38.58;;;33.94;;
1987;SDS011;12775;46.994;15.498;2022-10-16T05:40:39;65.50;;;33.86;;
1987;SDS011;12775;46.994;15.498;2022-10-16T05:43:06;47.74;;;33.48;;
1987;SDS011;12775;46.994;15.498;2022-10-16T05:45:32;49.44;;;33.02;;
1987;SDS011;12775;46.994;15.498;2022-10-16T05:47:59;54.50;;;32.94;;
1987;SDS011;12775;46.994;15.498;2022-10-16T05:50:26;42.26;;;34.86;;
1987;SDS011;12775;46.994;15.498;2022-10-16T05:52:52;60.76;;;32.54;;
1987;SDS011;12775;46.994;15.498;2022-10-16T05:55:19;50.54;;;32.42;;
1987;SDS011;12775;46.994;15.498;2022-10-16T05:57:45;52.88;;;33.12;;
1987;SDS011;12775;46.994;15.498;2022-10-16T06:00:12;39.98;;;31.76;;
1987;SDS011;12775;46.994;15.498;2022-10-16T06:02:39;61.36;;;32.88;;
1987;SDS011;12775;46.994;15.498;2022-10-16T06:05:05;52.74;;;36.66;;
1987;SDS011;12775;46.994;15.498;2022-10-16T06:07:35;47.74;;;36.16;;
1987;SDS011;12775;46.994;15.498;2022-10-16T06:10:02;67.62;;;36.64;;
1987;SDS011;12775;46.994;15.498;2022-10-16T06:12:28;44.48;;;34.62;;
1987;SDS011;12775;46.994;15.498;2022-10-16T06:14:54;64.30;;;36.66;;
1987;SDS011;12775;46.994;15.498;2022-10-16T06:17:21;49.20;;;36.50;;
1987;SDS011;12775;46.994;15.498;2022-10-16T06:19:48;47.86;;;35.00;;
1987;SDS011;12775;46.994;15.498;2022-10-16T06:22:14;47.34;;;32.58;;
1987;SDS011;12775;46.994;15.498;2022-10-16T06:24:42;50.04;;;35.64;;
1987;SDS011;12775;46.994;15.498;2022-10-16T06:27:08;38.36;;;33.54;;
1987;SDS011;12775;46.994;15.498;2022-10-16T06:29:35;51.38;;;34.58;;
1987;SDS011;12775;46.994;15.498;2022-10-16T06:32:02;47.66;;;32.68;;
1987;SDS011;12775;46.994;15.498;2022-10-16T06:34:29;34.72;;;29.70;;
1987;SDS011;12775;46.994;15.498;2022-10-16T06:36:56;39.50;;;31.20;;
1987;SDS011;12775;46.994;15.498;2022-10-16T06:39:22;36.46;;;30.36;;
1987;SDS011;12775;46.994;15.498;2022-10-16T06:41:49;30.02;;;24.92;;
1987;SDS011;12775;46.994;15.498;2022-10-16T06:44:15;41.62;;;28.74;;
1987;SDS011;12775;46.994;15.498;2022-10-16T06:46:42;38.18;;;26.00;;
1987;SDS011;12775;46.994;15.498;2022-10-16T06:49:09;48.20;;;24.56;;
1987;SDS011;12775;46.994;15.498;2022-10-16T06:51:35;41.98;;;25.04;;
1987;SDS011;12775;46.994;15.498;2022-10-16T06:54:02;48.36;;;26.06;;
1987;SDS011;12775;46.994;15.498;2022-10-16T06:56:30;43.60;;;25.00;;
1987;SDS011;12775;46.994;15.498;2022-10-16T06:58:56;46.66;;;25.84;;
1987;SDS011;12775;46.994;15.498;2022-10-16T07:01:23;42.26;;;27.28;;
1987;SDS011;12775;46.994;15.498;2022-10-16T07:03:49;36.22;;;26.06;;
1987;SDS011;12775;46.994;15.498;2022-10-16T07:06:17;38.22;;;26.62;;
1987;SDS011;12775;46.994;15.498;2022-10-16T07:08:43;38.82;;;27.12;;
1987;SDS011;12775;46.994;15.498;2022-10-16T07:11:10;33.66;;;27.48;;
1987;SDS011;12775;46.994;15.498;2022-10-16T07:13:36;44.30;;;29.16;;
1987;SDS011;12775;46.994;15.498;2022-10-16T07:16:05;39.54;;;28.06;;
1987;SDS011;12775;46.994;15.498;2022-10-16T07:18:32;39.40;;;25.82;;
1987;SDS011;12775;46.994;15.498;2022-10-16T07:21:03;32.26;;;27.94;;
1987;SDS011;12775;46.994;15.498;2022-10-16T07:23:32;33.54;;;28.78;;
1987;SDS011;12775;46.994;15.498;2022-10-16T07:25:59;36.04;;;28.78;;
1987;SDS011;12775;46.994;15.498;2022-10-16T07:28:26;34.90;;;27.14;;
1987;SDS011;12775;46.994;15.498;2022-10-16T07:30:52;37.60;;;27.86;;
1987;SDS011;12775;46.994;15.498;2022-10-16T07:33:20;54.54;;;28.52;;
1987;SDS011;12775;46.994;15.498;2022-10-16T07:35:49;39.00;;;26.94;;
1987;SDS011;12775;46.994;15.498;2022-10-16T07:38:17;42.44;;;29.22;;
1987;SDS011;12775;46.994;15.498;2022-10-16T07:40:45;57.34;;;27.08;;
1987;SDS011;12775;46.994;15.498;2022-10-16T07:43:11;32.12;;;26.10;;
1987;SDS011;12775;46.994;15.498;2022-10-16T07:45:46;51.18;;;26.94;;
1987;SDS011;12775;46.994;15.498;2022-10-16T07:48:21;27.94;;;24.80;;
1987;SDS011;12775;46.994;15.498;2022-10-16T07:50:47;34.42;;;29.26;;
1987;SDS011;12775;46.994;15.498;2022-10-16T07:53:13;35.84;;;26.50;;
1987;SDS011;12775;46.994;15.498;2022-10-16T07:55:40;31.72;;;25.98;;
1987;SDS011;12775;46.994;15.498;2022-10-16T07:58:06;33.20;;;25.88;;
1987;SDS011;12775;46.994;15.498;2022-10-16T08:00:33;35.94;;;27.28;;
1987;SDS011;12775;46.994;15.498;2022-10-16T08:03:00;32.00;;;27.66;;
1987;SDS011;12775;46.994;15.498;2022-10-16T08:05:27;34.72;;;27.26;;
1987;SDS011;12775;46.994;15.498;2022-10-16T08:07:53;37.10;;;28.80;;
1987;SDS011;12775;46.994;15.498;2022-10-16T08:10:21;34.84;;;28.82;;
1987;SDS011;12775;46.994;15.498;2022-10-16T08:12:47;34.62;;;30.80;;
1987;SDS011;12775;46.994;15.498;2022-10-16T08:15:14;41.64;;;31.02;;
1987;SDS011;12775;46.994;15.498;2022-10-16T08:17:40;33.14;;;28.58;;
1987;SDS011;12775;46.994;15.498;2022-10-16T08:20:07;34.36;;;29.68;;
1987;SDS011;12775;46.994;15.498;2022-10-16T08:22:34;35.44;;;31.40;;
1987;SDS011;12775;46.994;15.498;2022-10-16T08:25:01;38.90;;;30.96;;
1987;SDS011;12775;46.994;15.498;2022-10-16T08:27:32;37.98;;;31.82;;
1987;SDS011;12775;46.994;15.498;2022-10-16T08:29:59;33.56;;;29.34;;
1987;SDS011;12775;46.994;15.498;2022-10-16T08:32:27;35.10;;;30.04;;
1987;SDS011;12775;46.994;15.498;2022-10-16T08:34:54;38.26;;;29.52;;
1987;SDS011;12775;46.994;15.498;2022-10-16T08:37:21;31.66;;;28.42;;
1987;SDS011;12775;46.994;15.498;2022-10-16T08:39:48;30.66;;;27.40;;
1987;SDS011;12775;46.994;15.498;2022-10-16T08:42:23;33.14;;;29.70;;
1987;SDS011;12775;46.994;15.498;2022-10-16T08:44:58;31.54;;;28.26;;
1987;SDS011;12775;46.994;15.498;2022-10-16T08:47:35;31.52;;;27.92;;
1987;SDS011;12775;46.994;15.498;2022-10-16T08:50:00;34.54;;;28.32;;
1987;SDS011;12775;46.994;15.498;2022-10-16T08:52:29;29.50;;;26.60;;
1987;SDS011;12775;46.994;15.498;2022-10-16T08:54:53;32.12;;;27.54;;
1987;SDS011;12775;46.994;15.498;2022-10-16T08:57:20;30.22;;;27.02;;
1987;SDS011;12775;46.994;15.498;2022-10-16T08:59:46;30.22;;;25.44;;
1987;SDS011;12775;46.994;15.498;2022-10-16T09:02:24;28.58;;;25.36;;
1987;SDS011;12775;46.994;15.498;2022-10-16T09:04:55;28.38;;;25.22;;
1987;SDS011;12775;46.994;15.498;2022-10-16T09:08:09;30.14;;;25.16;;
1987;SDS011;12775;46.994;15.498;2022-10-16T09:10:31;26.90;;;24.04;;
1987;SDS011;12775;46.994;15.498;2022-10-16T09:13:00;25.16;;;22.52;;
1987;SDS011;12775;46.994;15.498;2022-10-16T09:15:29;28.32;;;24.18;;
1987;SDS011;12775;46.994;15.498;2022-10-16T09:17:58;25.74;;;22.12;;
1987;SDS011;12775;46.994;15.498;2022-10-16T09:20:28;25.92;;;23.30;;
1987;SDS011;12775;46.994;15.498;2022-10-16T09:22:55;31.78;;;24.82;;
1987;SDS011;12775;46.994;15.498;2022-10-16T09:25:21;26.22;;;23.34;;
1987;SDS011;12775;46.994;15.498;2022-10-16T09:27:48;26.54;;;23.76;;
1987;SDS011;12775;46.994;15.498;2022-10-16T09:30:14;26.18;;;23.38;;
1987;SDS011;12775;46.994;15.498;2022-10-16T09:32:42;24.48;;;21.98;;
1987;SDS011;12775;46.994;15.498;2022-10-16T09:35:11;24.16;;;21.58;;
1987;SDS011;12775;46.994;15.498;2022-10-16T09:37:40;22.80;;;20.54;;
1987;SDS011;12775;46.994;15.498;2022-10-16T09:40:07;25.00;;;21.16;;
1987;SDS011;12775;46.994;15.498;2022-10-16T09:42:35;23.58;;;21.06;;
1987;SDS011;12775;46.994;15.498;2022-10-16T09:45:01;23.36;;;20.92;;
1987;SDS011;12775;46.994;15.498;2022-10-16T09:47:28;22.30;;;19.96;;
1987;SDS011;12775;46.994;15.498;2022-10-16T09:49:55;25.64;;;22.98;;
1987;SDS011;12775;46.994;15.498;2022-10-16T09:52:25;22.66;;;19.94;;
1987;SDS011;12775;46.994;15.498;2022-10-16T09:54:52;24.78;;;22.06;;
1987;SDS011;12775;46.994;15.498;2022-10-16T09:57:20;23.12;;;19.62;;
1987;SDS011;12775;46.994;15.498;2022-10-16T09:59:47;20.16;;;17.86;;
1987;SDS011;12775;46.994;15.498;2022-10-16T10:02:16;22.18;;;19.88;;
1987;SDS011;12775;46.994;15.498;2022-10-16T10:04:48;21.54;;;19.44;;
1987;SDS011;12775;46.994;15.498;2022-10-16T10:07:16;22.60;;;19.74;;
1987;SDS011;12775;46.994;15.498;2022-10-16T10:09:43;21.68;;;19.44;;
1987;SDS011;12775;46.994;15.498;2022-10-16T10:12:16;21.46;;;19.16;;
1987;SDS011;12775;46.994;15.498;2022-10-16T10:14:49;21.48;;;19.12;;
1987;SDS011;12775;46.994;15.498;2022-10-16T10:17:17;22.28;;;19.94;;
1987;SDS011;12775;46.994;15.498;2022-10-16T10:19:47;21.84;;;19.38;;
1987;SDS011;12775;46.994;15.498;2022-10-16T10:22:25;24.66;;;19.50;;
1987;SDS011;12775;46.994;15.498;2022-10-16T10:25:32;19.66;;;17.40;;
1987;SDS011;12775;46.994;15.498;2022-10-16T10:27:50;20.84;;;18.62;;
1987;SDS011;12775;46.994;15.498;2022-10-16T10:30:35;21.10;;;18.82;;
1987;SDS011;12775;46.994;15.498;2022-10-16T10:33:20;21.34;;;19.02;;
1987;SDS011;12775;46.994;15.498;2022-10-16T10:38:51;20.12;;;18.14;;
1987;SDS011;12775;46.994;15.498;2022-10-16T10:41:40;20.30;;;18.28;;
1987;SDS011;12775;46.994;15.498;2022-10-16T10:44:16;20.26;;;18.12;;
1987;SDS011;12775;46.994;15.498;2022-10-16T10:46:46;20.18;;;18.18;;
1987;SDS011;12775;46.994;15.498;2022-10-16T10:49:30;21.98;;;19.32;;
1987;SDS011;12775;46.994;15.498;2022-10-16T10:52:02;19.34;;;17.38;;
1987;SDS011;12775;46.994;15.498;2022-10-16T10:54:36;19.60;;;17.56;;
1987;SDS011;12775;46.994;15.498;2022-10-16T10:57:09;21.60;;;19.30;;
1987;SDS011;12775;46.994;15.498;2022-10-16T10:59:41;18.52;;;16.78;;
1987;SDS011;12775;46.994;15.498;2022-10-16T11:02:23;18.00;;;16.30;;
1987;SDS011;12775;46.994;15.498;2022-10-16T11:04:57;24.98;;;18.02;;
1987;SDS011;12775;46.994;15.498;2022-10-16T11:07:25;17.68;;;15.76;;
1987;SDS011;12775;46.994;15.498;2022-10-16T11:09:53;17.58;;;15.70;;
1987;SDS011;12775;46.994;15.498;2022-10-16T11:12:25;18.98;;;17.18;;
1987;SDS011;12775;46.994;15.498;2022-10-16T11:14:57;18.58;;;16.68;;
1987;SDS011;12775;46.994;15.498;2022-10-16T11:17:23;18.30;;;16.50;;
1987;SDS011;12775;46.994;15.498;2022-10-16T11:19:50;18.76;;;16.80;;
1987;SDS011;12775;46.994;15.498;2022-10-16T11:22:19;18.32;;;16.62;;
1987;SDS011;12775;46.994;15.498;2022-10-16T11:24:51;18.32;;;16.62;;
1987;SDS011;12775;46.994;15.498;2022-10-16T11:27:17;18.58;;;16.64;;
1987;SDS011;12775;46.994;15.498;2022-10-16T11:29:46;20.02;;;17.64;;
1987;SDS011;12775;46.994;15.498;2022-10-16T11:32:16;19.40;;;17.48;;
1987;SDS011;12775;46.994;15.498;2022-10-16T11:34:41;19.20;;;17.30;;
1987;SDS011;12775;46.994;15.498;2022-10-16T11:37:11;16.52;;;14.92;;
1987;SDS011;12775;46.994;15.498;2022-10-16T11:39:38;19.86;;;17.88;;
1987;SDS011;12775;46.994;15.498;2022-10-16T11:42:07;22.28;;;17.82;;
1987;SDS011;12775;46.994;15.498;2022-10-16T11:45:38;19.84;;;17.76;;
1987;SDS011;12775;46.994;15.498;2022-10-16T11:47:35;23.02;;;17.46;;
1987;SDS011;12775;46.994;15.498;2022-10-16T11:50:48;20.36;;;18.36;;
1987;SDS011;12775;46.994;15.498;2022-10-16T11:53:07;19.22;;;17.28;;
1987;SDS011;12775;46.994;15.498;2022-10-16T11:55:37;19.58;;;17.56;;
1987;SDS011;12775;46.994;15.498;2022-10-16T11:58:04;19.84;;;18.04;;
1987;SDS011;12775;46.994;15.498;2022-10-16T12:00:35;20.92;;;18.86;;
1987;SDS011;12775;46.994;15.498;2022-10-16T12:03:03;19.90;;;17.90;;
1987;SDS011;12775;46.994;15.498;2022-10-16T12:08:24;20.40;;;18.54;;
1987;SDS011;12775;46.994;15.498;2022-10-16T12:10:51;21.48;;;19.26;;
1987;SDS011;12775;46.994;15.498;2022-10-16T12:16:03;18.32;;;16.66;;
1987;SDS011;12775;46.994;15.498;2022-10-16T12:18:21;19.50;;;17.58;;
1987;SDS011;12775;46.994;15.498;2022-10-16T12:20:54;21.48;;;19.36;;
1987;SDS011;12775;46.994;15.498;2022-10-16T12:23:19;19.92;;;18.04;;
1987;SDS011;12775;46.994;15.498;2022-10-16T12:25:42;17.98;;;16.28;;
1987;SDS011;12775;46.994;15.498;2022-10-16T12:28:22;19.08;;;17.26;;
1987;SDS011;12775;46.994;15.498;2022-10-16T12:30:52;18.02;;;16.22;;
1987;SDS011;12775;46.994;15.498;2022-10-16T12:33:20;17.70;;;15.92;;
1987;SDS011;12775;46.994;15.498;2022-10-16T12:35:52;16.40;;;14.80;;
1987;SDS011;12775;46.994;15.498;2022-10-16T12:38:20;17.30;;;15.48;;
1987;SDS011;12775;46.994;15.498;2022-10-16T12:40:55;19.18;;;17.24;;
1987;SDS011;12775;46.994;15.498;2022-10-16T12:43:25;18.84;;;17.06;;
1987;SDS011;12775;46.994;15.498;2022-10-16T12:45:58;17.28;;;15.50;;
1987;SDS011;12775;46.994;15.498;2022-10-16T12:48:31;16.40;;;14.80;;
1987;SDS011;12775;46.994;15.498;2022-10-16T12:51:09;18.66;;;16.06;;
1987;SDS011;12775;46.994;15.498;2022-10-16T12:53:25;18.66;;;16.66;;
1987;SDS011;12775;46.994;15.498;2022-10-16T12:55:55;18.12;;;16.32;;
1987;SDS011;12775;46.994;15.498;2022-10-16T12:58:25;16.96;;;15.36;;
1987;SDS011;12775;46.994;15.498;2022-10-16T13:01:07;17.94;;;16.06;;
1987;SDS011;12775;46.994;15.498;2022-10-16T13:03:43;19.02;;;15.46;;
1987;SDS011;12775;46.994;15.498;2022-10-16T13:08:54;19.62;;;16.38;;
1987;SDS011;12775;46.994;15.498;2022-10-16T13:11:23;18.16;;;15.96;;
1987;SDS011;12775;46.994;15.498;2022-10-16T13:14:02;20.60;;;18.52;;
1987;SDS011;12775;46.994;15.498;2022-10-16T13:16:30;21.96;;;19.80;;
1987;SDS011;12775;46.994;15.498;2022-10-16T13:19:11;19.46;;;17.60;;
1987;SDS011;12775;46.994;15.498;2022-10-16T13:24:22;21.06;;;19.10;;
1987;SDS011;12775;46.994;15.498;2022-10-16T13:27:06;19.96;;;17.96;;
1987;SDS011;12775;46.994;15.498;2022-10-16T13:29:35;19.48;;;17.50;;
1987;SDS011;12775;46.994;15.498;2022-10-16T13:32:06;18.42;;;16.56;;
1987;SDS011;12775;46.994;15.498;2022-10-16T13:34:29;22.06;;;18.76;;
1987;SDS011;12775;46.994;15.498;2022-10-16T13:36:56;21.62;;;18.16;;
1987;SDS011;12775;46.994;15.498;2022-10-16T13:39:23;21.42;;;18.64;;
1987;SDS011;12775;46.994;15.498;2022-10-16T13:44:34;19.84;;;17.90;;
1987;SDS011;12775;46.994;15.498;2022-10-16T13:46:59;20.24;;;18.32;;
1987;SDS011;12775;46.994;15.498;2022-10-16T13:49:26;20.78;;;18.72;;
1987;SDS011;12775;46.994;15.498;2022-10-16T13:51:54;19.96;;;18.02;;
1987;SDS011;12775;46.994;15.498;2022-10-16T13:54:22;18.08;;;16.28;;
1987;SDS011;12775;46.994;15.498;2022-10-16T13:56:48;17.88;;;16.08;;
1987;SDS011;12775;46.994;15.498;2022-10-16T14:01:48;18.32;;;16.42;;
1987;SDS011;12775;46.994;15.498;2022-10-16T14:04:15;20.16;;;18.08;;
1987;SDS011;12775;46.994;15.498;2022-10-16T14:06:42;18.10;;;16.28;;
1987;SDS011;12775;46.994;15.498;2022-10-16T14:09:24;18.26;;;16.50;;
1987;SDS011;12775;46.994;15.498;2022-10-16T14:11:50;22.22;;;18.56;;
1987;SDS011;12775;46.994;15.498;2022-10-16T14:14:18;19.22;;;17.30;;
1987;SDS011;12775;46.994;15.498;2022-10-16T14:16:44;20.96;;;18.70;;
1987;SDS011;12775;46.994;15.498;2022-10-16T14:19:13;22.80;;;20.40;;
1987;SDS011;12775;46.994;15.498;2022-10-16T14:21:40;24.56;;;21.94;;
1987;SDS011;12775;46.994;15.498;2022-10-16T14:24:11;24.02;;;21.72;;
1987;SDS011;12775;46.994;15.498;2022-10-16T14:26:40;24.96;;;22.46;;
1987;SDS011;12775;46.994;15.498;2022-10-16T14:29:10;24.96;;;21.40;;
1987;SDS011;12775;46.994;15.498;2022-10-16T14:31:36;23.28;;;20.76;;
1987;SDS011;12775;46.994;15.498;2022-10-16T14:34:03;23.34;;;20.86;;
1987;SDS011;12775;46.994;15.498;2022-10-16T14:36:30;25.72;;;23.02;;
1987;SDS011;12775;46.994;15.498;2022-10-16T14:39:00;23.98;;;21.58;;
1987;SDS011;12775;46.994;15.498;2022-10-16T14:41:26;26.68;;;23.70;;
1987;SDS011;12775;46.994;15.498;2022-10-16T14:43:54;25.90;;;23.20;;
1987;SDS011;12775;46.994;15.498;2022-10-16T14:46:21;27.92;;;24.96;;
1987;SDS011;12775;46.994;15.498;2022-10-16T14:48:47;27.34;;;24.66;;
1987;SDS011;12775;46.994;15.498;2022-10-16T14:51:13;37.86;;;23.56;;